C6044 KMOB-KMOB
Flight info
| Callsign | C6044 |
|---|---|
| Flight time | 0h 7m |
| Altitude | 6000 |
| Route | KPNS |
| Aircraft | H60/L-DGILORTUVY/SB2 |
Departure
| Time | 2026-04-28 00:14 |
|---|---|
| Airport | Mobile Regional Airport (KMOB) |
Arrival
| Time | 2026-04-28 00:21 |
|---|---|
| Airport | Mobile Regional Airport (KMOB) |
| Time | Latitude | Longitude | Altitude | Speed | Heading |
|---|---|---|---|---|---|
| 2026-04-27 23:48 | 29.94065 | -88.16947 | 33 ft | 1 kts | 102° |
| 2026-04-27 23:48 | 29.94065 | -88.16939 | 33 ft | 1 kts | 102° |
| 2026-04-27 23:49 | 29.94065 | -88.16931 | 33 ft | 1 kts | 102° |
| 2026-04-27 23:49 | 29.94065 | -88.16923 | 33 ft | 1 kts | 102° |
| 2026-04-27 23:49 | 29.94065 | -88.16915 | 33 ft | 1 kts | 102° |
| 2026-04-27 23:49 | 29.94065 | -88.16906 | 33 ft | 1 kts | 102° |
| 2026-04-27 23:50 | 29.94065 | -88.16898 | 33 ft | 1 kts | 102° |
| 2026-04-27 23:50 | 29.94065 | -88.16890 | 33 ft | 1 kts | 102° |
| 2026-04-27 23:50 | 29.94067 | -88.16884 | 40 ft | 1 kts | 104° |
| 2026-04-27 23:50 | 29.94052 | -88.16884 | 57 ft | 24 kts | 109° |
| 2026-04-27 23:51 | 29.93942 | -88.16778 | 160 ft | 24 kts | 103° |
| 2026-04-27 23:51 | 29.94101 | -88.16691 | 139 ft | 31 kts | 306° |
| 2026-04-27 23:51 | 29.94257 | -88.16647 | 116 ft | 14 kts | 262° |
| 2026-04-27 23:51 | 29.94314 | -88.16713 | 99 ft | 7 kts | 255° |
| 2026-04-27 23:52 | 29.94316 | -88.16795 | 106 ft | 12 kts | 242° |
| 2026-04-27 23:52 | 29.94252 | -88.16959 | 111 ft | 22 kts | 204° |
| 2026-04-27 23:52 | 29.94161 | -88.16958 | 99 ft | 19 kts | 184° |
| 2026-04-27 23:52 | 29.94063 | -88.16887 | 60 ft | 10 kts | 90° |
| 2026-04-27 23:53 | 29.94070 | -88.16856 | 60 ft | 6 kts | 104° |
| 2026-04-27 23:53 | 29.94075 | -88.16810 | 46 ft | 2 kts | 99° |
| 2026-04-27 23:53 | 29.94072 | -88.16793 | 43 ft | 2 kts | 101° |
| 2026-04-27 23:53 | 29.94068 | -88.16776 | 33 ft | 1 kts | 170° |
| 2026-04-27 23:54 | 29.94064 | -88.16775 | 35 ft | 2 kts | 121° |
| 2026-04-27 23:54 | 29.94014 | -88.16772 | 115 ft | 16 kts | 121° |
| 2026-04-27 23:54 | 29.93950 | -88.16643 | 70 ft | 21 kts | 4° |
| 2026-04-27 23:54 | 29.94061 | -88.16534 | 92 ft | 11 kts | 297° |
| 2026-04-27 23:55 | 29.94162 | -88.16579 | 93 ft | 10 kts | 284° |
| 2026-04-27 23:55 | 29.94203 | -88.16661 | 125 ft | 19 kts | 277° |
| 2026-04-27 23:55 | 29.94182 | -88.16858 | 176 ft | 22 kts | 163° |
| 2026-04-27 23:55 | 29.94043 | -88.16849 | 128 ft | 14 kts | 105° |
| 2026-04-27 23:56 | 29.94069 | -88.16791 | 94 ft | 10 kts | 98° |
| 2026-04-27 23:56 | 29.94070 | -88.16739 | 49 ft | 3 kts | 102° |
| 2026-04-27 23:56 | 29.94067 | -88.16710 | 41 ft | 5 kts | 96° |
| 2026-04-27 23:56 | 29.94066 | -88.16682 | 33 ft | 1 kts | 111° |
| 2026-04-27 23:57 | 29.94062 | -88.16676 | 38 ft | 5 kts | 121° |
| 2026-04-27 23:57 | 29.94003 | -88.16638 | 106 ft | 23 kts | 118° |
| 2026-04-27 23:57 | 29.94055 | -88.16428 | 167 ft | 24 kts | 318° |
| 2026-04-27 23:57 | 29.94190 | -88.16490 | 66 ft | 21 kts | 263° |
| 2026-04-27 23:58 | 29.94216 | -88.16627 | 92 ft | 21 kts | 256° |
| 2026-04-27 23:58 | 29.94153 | -88.16777 | 104 ft | 21 kts | 123° |
| 2026-04-27 23:58 | 29.94052 | -88.16763 | 57 ft | 9 kts | 99° |
| 2026-04-27 23:58 | 29.94072 | -88.16707 | 51 ft | 16 kts | 86° |
| 2026-04-27 23:59 | 29.94091 | -88.16649 | 65 ft | 0 kts | 83° |
| 2026-04-27 23:59 | 29.94072 | -88.16621 | 47 ft | 4 kts | 105° |
| 2026-04-27 23:59 | 29.94067 | -88.16602 | 33 ft | 1 kts | 102° |
| 2026-04-27 23:59 | 29.94026 | -88.16575 | 72 ft | 15 kts | 117° |
| 2026-04-28 00:00 | 29.94076 | -88.16404 | 178 ft | 28 kts | 316° |
| 2026-04-28 00:00 | 29.94253 | -88.16531 | 100 ft | 34 kts | 216° |
| 2026-04-28 00:00 | 29.94151 | -88.16659 | 134 ft | 34 kts | 81° |
| 2026-04-28 00:00 | 29.94027 | -88.16588 | 119 ft | 32 kts | 87° |
| 2026-04-28 00:01 | 29.94037 | -88.16655 | 194 ft | 25 kts | 114° |
| 2026-04-28 00:01 | 29.94145 | -88.16699 | 155 ft | 9 kts | 71° |
| 2026-04-28 00:01 | 29.94021 | -88.16615 | 170 ft | 3 kts | 107° |
| 2026-04-28 00:01 | 29.94076 | -88.16574 | 69 ft | 6 kts | 100° |
| 2026-04-28 00:02 | 29.94071 | -88.16534 | 51 ft | 6 kts | 104° |
| 2026-04-28 00:02 | 29.94065 | -88.16512 | 33 ft | 1 kts | 94° |
| 2026-04-28 00:02 | 29.94007 | -88.16465 | 71 ft | 22 kts | 102° |
| 2026-04-28 00:02 | 29.94114 | -88.16361 | 69 ft | 40 kts | 303° |
| 2026-04-28 00:03 | 29.94255 | -88.16551 | 179 ft | 45 kts | 186° |
| 2026-04-28 00:03 | 29.94082 | -88.16656 | 207 ft | 28 kts | 84° |
| 2026-04-28 00:03 | 29.94064 | -88.16580 | 86 ft | 11 kts | 97° |
| 2026-04-28 00:03 | 29.94066 | -88.16536 | 80 ft | 8 kts | 100° |
| 2026-04-28 00:04 | 29.94067 | -88.16478 | 59 ft | 7 kts | 99° |
| 2026-04-28 00:04 | 29.94066 | -88.16439 | 33 ft | 1 kts | 94° |
| 2026-04-28 00:04 | 29.94097 | -88.16433 | 110 ft | 16 kts | 330° |
| 2026-04-28 00:05 | 29.94395 | -88.16544 | 583 ft | 76 kts | 347° |
| 2026-04-28 00:05 | 29.94797 | -88.16641 | 1195 ft | 95 kts | 352° |
| 2026-04-28 00:05 | 29.95420 | -88.16772 | 2314 ft | 90 kts | 353° |
| 2026-04-28 00:05 | 29.96189 | -88.16945 | 3252 ft | 132 kts | 346° |
| 2026-04-28 00:06 | 29.97033 | -88.17232 | 3872 ft | 122 kts | 338° |
| 2026-04-28 00:06 | 29.97754 | -88.17682 | 4300 ft | 120 kts | 331° |
| 2026-04-28 00:06 | 29.98536 | -88.18203 | 4595 ft | 138 kts | 328° |
| 2026-04-28 00:06 | 29.99421 | -88.18848 | 4215 ft | 163 kts | 328° |
| 2026-04-28 00:07 | 30.00401 | -88.19553 | 3596 ft | 166 kts | 328° |
| 2026-04-28 00:07 | 30.01326 | -88.20209 | 3125 ft | 144 kts | 328° |
| 2026-04-28 00:07 | 30.02148 | -88.20730 | 3006 ft | 125 kts | 334° |
| 2026-04-28 00:07 | 30.02977 | -88.21012 | 3010 ft | 123 kts | 346° |
| 2026-04-28 00:08 | 30.03806 | -88.21259 | 2993 ft | 124 kts | 346° |
| 2026-04-28 00:08 | 30.04648 | -88.21510 | 2933 ft | 124 kts | 346° |
| 2026-04-28 00:08 | 30.05449 | -88.21749 | 3026 ft | 118 kts | 346° |
| 2026-04-28 00:08 | 30.06307 | -88.22003 | 2936 ft | 143 kts | 346° |
| 2026-04-28 00:09 | 30.07344 | -88.22312 | 2622 ft | 154 kts | 346° |
| 2026-04-28 00:09 | 30.08351 | -88.22613 | 2511 ft | 147 kts | 346° |
| 2026-04-28 00:09 | 30.09272 | -88.22882 | 2808 ft | 135 kts | 346° |
| 2026-04-28 00:09 | 30.10229 | -88.23049 | 2884 ft | 143 kts | 355° |
| 2026-04-28 00:10 | 30.11264 | -88.23146 | 2712 ft | 156 kts | 357° |
| 2026-04-28 00:10 | 30.12382 | -88.23239 | 2412 ft | 165 kts | 357° |
| 2026-04-28 00:10 | 30.13528 | -88.23341 | 2341 ft | 163 kts | 357° |
| 2026-04-28 00:10 | 30.14645 | -88.23446 | 2364 ft | 159 kts | 356° |
| 2026-04-28 00:11 | 30.15759 | -88.23555 | 2289 ft | 160 kts | 356° |
| 2026-04-28 00:11 | 30.16852 | -88.23666 | 2364 ft | 155 kts | 356° |
| 2026-04-28 00:11 | 30.17891 | -88.23771 | 2581 ft | 146 kts | 356° |
| 2026-04-28 00:11 | 30.18893 | -88.23871 | 2696 ft | 152 kts | 356° |
| 2026-04-28 00:12 | 30.19972 | -88.23980 | 2530 ft | 158 kts | 356° |
| 2026-04-28 00:12 | 30.21130 | -88.24097 | 2414 ft | 182 kts | 356° |
| 2026-04-28 00:12 | 30.22475 | -88.24209 | 1988 ft | 202 kts | 358° |
| 2026-04-28 00:12 | 30.23884 | -88.24273 | 1682 ft | 202 kts | 360° |
| 2026-04-28 00:13 | 30.25251 | -88.24185 | 1654 ft | 188 kts | 8° |
| 2026-04-28 00:13 | 30.26533 | -88.24070 | 1872 ft | 188 kts | 6° |
| 2026-04-28 00:13 | 30.27899 | -88.23985 | 1551 ft | 203 kts | 4° |
| 2026-04-28 00:13 | 30.29299 | -88.23958 | 1336 ft | 191 kts | 3° |
| 2026-04-28 00:14 | 30.30594 | -88.23911 | 1562 ft | 187 kts | 4° |
| 2026-04-28 00:14 | 30.31884 | -88.23834 | 1743 ft | 184 kts | 5° |
| 2026-04-28 00:14 | 30.33194 | -88.23726 | 1730 ft | 193 kts | 6° |
| 2026-04-28 00:14 | 30.34567 | -88.23588 | 1457 ft | 201 kts | 6° |
| 2026-04-28 00:15 | 30.35927 | -88.23489 | 1472 ft | 189 kts | 5° |
| 2026-04-28 00:15 | 30.37198 | -88.23336 | 1773 ft | 181 kts | 10° |
| 2026-04-28 00:15 | 30.38391 | -88.23058 | 2237 ft | 168 kts | 16° |
| 2026-04-28 00:15 | 30.39606 | -88.22690 | 2240 ft | 191 kts | 17° |
| 2026-04-28 00:16 | 30.40955 | -88.22516 | 1900 ft | 204 kts | 6° |
| 2026-04-28 00:16 | 30.42354 | -88.22322 | 1709 ft | 201 kts | 11° |
| 2026-04-28 00:16 | 30.43739 | -88.22047 | 1472 ft | 203 kts | 12° |
| 2026-04-28 00:16 | 30.45131 | -88.21781 | 1262 ft | 203 kts | 9° |
| 2026-04-28 00:17 | 30.46537 | -88.21743 | 1077 ft | 203 kts | 1° |
| 2026-04-28 00:17 | 30.47969 | -88.21752 | 739 ft | 207 kts | 0° |
| 2026-04-28 00:17 | 30.49363 | -88.21845 | 639 ft | 190 kts | 359° |
| 2026-04-28 00:17 | 30.50672 | -88.21789 | 826 ft | 190 kts | 6° |
| 2026-04-28 00:18 | 30.51961 | -88.21661 | 1088 ft | 182 kts | 8° |
| 2026-04-28 00:18 | 30.53224 | -88.21503 | 1364 ft | 184 kts | 9° |
| 2026-04-28 00:18 | 30.54533 | -88.21312 | 1380 ft | 195 kts | 9° |
| 2026-04-28 00:18 | 30.55898 | -88.21209 | 1377 ft | 197 kts | 4° |
| 2026-04-28 00:19 | 30.57266 | -88.21293 | 1371 ft | 199 kts | 353° |
| 2026-04-28 00:19 | 30.58565 | -88.21850 | 1301 ft | 200 kts | 334° |
| 2026-04-28 00:19 | 30.59838 | -88.22526 | 1177 ft | 202 kts | 338° |
| 2026-04-28 00:19 | 30.61160 | -88.23013 | 1219 ft | 195 kts | 343° |
| 2026-04-28 00:20 | 30.62461 | -88.23367 | 1387 ft | 195 kts | 352° |
| 2026-04-28 00:20 | 30.63848 | -88.23593 | 1186 ft | 204 kts | 354° |
| 2026-04-28 00:20 | 30.65259 | -88.23696 | 1045 ft | 203 kts | 1° |
| 2026-04-28 00:20 | 30.66640 | -88.23431 | 882 ft | 196 kts | 17° |
| 2026-04-28 00:21 | 30.67852 | -88.23417 | 987 ft | 167 kts | 334° |
| 2026-04-28 00:21 | 30.68761 | -88.24125 | 636 ft | 126 kts | 333° |
| 2026-04-28 00:21 | 30.69286 | -88.24384 | 689 ft | 48 kts | 350° |
| 2026-04-28 00:21 | 30.69487 | -88.24337 | 275 ft | 14 kts | 353° |
| 2026-04-28 00:22 | 30.69507 | -88.24336 | 221 ft | 0 kts | 350° |
| 2026-04-28 00:22 | 30.69512 | -88.24337 | 222 ft | 4 kts | 2° |
| 2026-04-28 00:22 | 30.69537 | -88.24340 | 222 ft | 0 kts | 322° |